Time;durP1;ratioP1;P1;durP2;ratioP2;P2;SDS_P1;SDS_P2;PMS_P1;PMS_P2;Temp;Humidity;BMP_temperature;BMP_pressure;BME280_temperature;BME280_humidity;BME280_pressure;Samples;Min_cycle;Max_cycle;Signal;HPM_P1;HPM_P2
2022/06/19 00:00:57;;;;;;;11.43;1.70;;;14.40;99.90;;;;;;5076171;28;20040;-75
2022/06/19 00:03:40;;;;;;;7.95;1.83;;;14.50;99.90;;;;;;5061199;28;20067;-77
2022/06/19 00:06:06;;;;;;;14.05;2.08;;;14.40;99.90;;;;;;5072984;28;20044;-78
2022/06/19 00:08:32;;;;;;;11.32;1.92;;;14.40;99.90;;;;;;5073297;28;20361;-79
2022/06/19 00:10:59;;;;;;;12.57;1.77;;;14.40;99.90;;;;;;5056368;28;20186;-79
2022/06/19 00:13:25;;;;;;;10.15;1.65;;;14.40;99.90;;;;;;5073600;28;20079;-79
2022/06/19 00:15:50;;;;;;;10.93;1.58;;;14.40;99.90;;;;;;5056839;28;20068;-78
2022/06/19 00:18:16;;;;;;;10.68;1.92;;;14.30;99.90;;;;;;5073176;28;20048;-80
2022/06/19 00:20:43;;;;;;;9.73;1.73;;;14.40;99.90;;;;;;5072669;28;20048;-78
2022/06/19 00:23:08;;;;;;;13.48;1.80;;;14.40;99.90;;;;;;5072411;28;20492;-78
2022/06/19 00:25:35;;;;;;;10.85;1.90;;;14.40;99.90;;;;;;5074172;28;20060;-78
2022/06/19 00:28:01;;;;;;;8.68;1.98;;;14.40;99.90;;;;;;5076191;28;20092;-78
2022/06/19 00:30:27;;;;;;;10.18;1.70;;;14.50;99.90;;;;;;5076389;28;20480;-79
2022/06/19 00:32:53;;;;;;;12.88;2.22;;;14.40;99.90;;;;;;5059758;28;20043;-79
2022/06/19 00:35:21;;;;;;;12.15;2.03;;;14.40;99.90;;;;;;5076621;28;20459;-79
2022/06/19 00:37:47;;;;;;;14.95;2.22;;;14.40;99.90;;;;;;5075494;28;20143;-80
2022/06/19 00:40:14;;;;;;;11.00;2.13;;;14.40;99.90;;;;;;5059290;28;20044;-78
2022/06/19 00:42:40;;;;;;;17.55;2.05;;;14.40;99.90;;;;;;5058610;28;20560;-79
2022/06/19 00:45:07;;;;;;;10.57;2.20;;;14.40;99.90;;;;;;5086511;28;20063;-78
2022/06/19 00:47:38;;;;;;;15.05;2.47;;;14.40;99.90;;;;;;5086366;28;20115;-79
2022/06/19 00:50:25;;;;;;;11.85;2.17;;;14.40;99.90;;;;;;5076299;28;20086;-79
2022/06/19 00:52:51;;;;;;;15.50;2.20;;;14.40;99.90;;;;;;5075747;28;20127;-79
2022/06/19 00:55:24;;;;;;;22.80;2.80;;;14.50;99.90;;;;;;5075973;28;20047;-80
2022/06/19 00:58:03;;;;;;;18.48;2.78;;;14.50;99.90;;;;;;5055659;28;20040;-80
2022/06/19 01:00:30;;;;;;;13.20;2.50;;;14.50;99.90;;;;;;5072094;28;20033;-78
2022/06/19 01:03:03;;;;;;;16.45;2.58;;;14.60;99.90;;;;;;5055633;28;20163;-78
2022/06/19 01:05:30;;;;;;;20.75;3.25;;;14.50;99.90;;;;;;5038713;28;20127;-79
2022/06/19 01:08:00;;;;;;;16.17;2.42;;;14.60;99.90;;;;;;5038529;28;20044;-78
2022/06/19 01:10:26;;;;;;;18.23;2.70;;;14.60;99.90;;;;;;5056022;28;20089;-79
2022/06/19 01:12:53;;;;;;;16.52;2.80;;;14.50;99.90;;;;;;5038713;28;20138;-77
2022/06/19 01:15:21;;;;;;;14.63;2.72;;;14.60;99.90;;;;;;5055521;28;20037;-79
2022/06/19 01:17:51;;;;;;;23.33;3.30;;;14.60;99.90;;;;;;5080848;28;20040;-80
2022/06/19 01:20:17;;;;;;;17.52;3.55;;;14.50;99.90;;;;;;5058253;28;20040;-78
2022/06/19 01:23:10;;;;;;;19.98;2.85;;;14.50;99.90;;;;;;5058973;28;20063;-79
2022/06/19 01:25:39;;;;;;;19.25;2.88;;;14.50;99.90;;;;;;5061092;28;20387;-77
2022/06/19 01:30:58;;;;;;;19.42;3.50;;;14.50;99.90;;;;;;5075989;28;20066;-79
2022/06/19 01:33:32;;;;;;;24.05;3.33;;;14.60;99.90;;;;;;5075088;28;20083;-79
2022/06/19 01:36:00;;;;;;;20.02;2.63;;;14.50;99.90;;;;;;5057930;28;20078;-79
2022/06/19 01:38:27;;;;;;;20.67;3.72;;;14.60;99.90;;;;;;5074316;28;20047;-78
2022/06/19 01:40:59;;;;;;;20.40;3.03;;;14.50;99.90;;;;;;5075360;28;20386;-77
2022/06/19 01:43:25;;;;;;;18.05;2.97;;;14.50;99.90;;;;;;5071176;28;20032;-79
2022/06/19 01:45:56;;;;;;;26.13;2.92;;;14.50;99.90;;;;;;5071475;28;20503;-78
2022/06/19 01:48:27;;;;;;;18.95;3.50;;;14.40;99.90;;;;;;5054666;28;20094;-79
2022/06/19 01:50:55;;;;;;;16.95;2.58;;;14.40;99.90;;;;;;5053532;28;20084;-79
2022/06/19 01:53:44;;;;;;;23.15;3.25;;;14.40;99.90;;;;;;5054122;28;20371;-78
2022/06/19 01:56:12;;;;;;;21.75;3.53;;;14.40;99.90;;;;;;5061025;28;20040;-79
2022/06/19 01:58:41;;;;;;;24.13;3.70;;;14.40;99.90;;;;;;5057665;28;20051;-78
2022/06/19 02:01:08;;;;;;;24.23;3.28;;;14.30;99.90;;;;;;5073133;28;20040;-78
2022/06/19 02:03:56;;;;;;;20.45;3.05;;;14.30;99.90;;;;;;5074661;28;20063;-78
2022/06/19 02:06:27;;;;;;;28.27;3.15;;;14.30;99.90;;;;;;5073589;28;20092;-78
2022/06/19 02:08:53;;;;;;;21.40;2.97;;;14.20;99.90;;;;;;5077173;28;20051;-76
2022/06/19 02:11:20;;;;;;;16.17;2.60;;;14.20;99.90;;;;;;5085167;28;20119;-77
2022/06/19 02:13:48;;;;;;;22.77;3.65;;;14.10;99.90;;;;;;5063287;28;20043;-78
2022/06/19 02:16:16;;;;;;;26.85;3.35;;;14.10;99.90;;;;;;5074179;28;20066;-78
2022/06/19 02:18:45;;;;;;;25.42;3.20;;;14.10;99.90;;;;;;5074315;28;20479;-78
2022/06/19 02:21:19;;;;;;;16.95;2.70;;;14.20;99.90;;;;;;5072921;28;20032;-78
2022/06/19 02:23:48;;;;;;;17.20;2.80;;;14.00;99.90;;;;;;5073720;28;20040;-78
2022/06/19 02:26:17;;;;;;;23.35;3.22;;;14.00;99.90;;;;;;5084127;28;20048;-77
2022/06/19 02:28:48;;;;;;;19.83;2.92;;;14.00;99.90;;;;;;5053920;28;20313;-77
2022/06/19 02:31:16;;;;;;;27.27;3.63;;;14.00;99.90;;;;;;5037290;28;20492;-79
2022/06/19 02:33:53;;;;;;;15.82;2.75;;;14.00;99.90;;;;;;5036615;28;20495;-79
2022/06/19 02:36:37;;;;;;;21.10;3.40;;;14.00;99.90;;;;;;5020459;28;20044;-79
2022/06/19 02:39:27;;;;;;;26.58;3.35;;;14.00;99.90;;;;;;5053258;28;20040;-79
2022/06/19 02:42:22;;;;;;;31.35;3.90;;;14.00;99.90;;;;;;5037215;28;20044;-79
2022/06/19 02:44:54;;;;;;;23.67;3.10;;;14.00;99.90;;;;;;5054341;28;20043;-78
2022/06/19 02:47:22;;;;;;;22.73;3.10;;;14.00;99.90;;;;;;5040763;28;20040;-77
2022/06/19 02:49:48;;;;;;;24.75;3.28;;;14.00;99.90;;;;;;5055481;28;20044;-79
2022/06/19 02:52:14;;;;;;;19.67;2.75;;;14.00;99.90;;;;;;5035932;28;20056;-79
2022/06/19 02:54:40;;;;;;;21.88;3.28;;;13.90;99.90;;;;;;5053274;28;20044;-78
2022/06/19 02:57:09;;;;;;;18.42;3.58;;;13.90;99.90;;;;;;5036845;28;20376;-78
2022/06/19 02:59:35;;;;;;;18.80;2.95;;;14.10;99.90;;;;;;5053464;28;20051;-79
2022/06/19 03:02:01;;;;;;;20.08;2.88;;;14.10;99.90;;;;;;5053195;28;20036;-79
2022/06/19 03:04:34;;;;;;;15.48;3.13;;;14.00;99.90;;;;;;5036796;28;20036;-78
2022/06/19 03:07:00;;;;;;;20.63;3.38;;;13.90;99.90;;;;;;5053121;28;20048;-77
2022/06/19 03:09:25;;;;;;;13.45;2.38;;;14.00;99.90;;;;;;5036630;28;20052;-79
2022/06/19 03:11:51;;;;;;;20.33;2.75;;;14.00;99.90;;;;;;5053469;28;20040;-79
2022/06/19 03:14:17;;;;;;;16.83;2.70;;;14.00;99.90;;;;;;5053203;28;20047;-79
2022/06/19 03:16:46;;;;;;;17.45;2.53;;;14.10;99.90;;;;;;5053180;28;20040;-78
2022/06/19 03:19:12;;;;;;;21.63;2.85;;;14.00;99.90;;;;;;5033368;28;20041;-79
2022/06/19 03:21:38;;;;;;;25.73;3.25;;;14.00;99.90;;;;;;5032664;28;20128;-80
2022/06/19 03:24:04;;;;;;;16.55;2.65;;;14.10;99.90;;;;;;5033449;28;20057;-78
2022/06/19 03:26:30;;;;;;;22.98;3.03;;;14.10;99.90;;;;;;5039798;28;20064;-79
2022/06/19 03:28:57;;;;;;;24.42;3.42;;;14.10;99.90;;;;;;5033384;28;20047;-79
2022/06/19 03:31:26;;;;;;;17.90;2.38;;;14.10;99.90;;;;;;5016861;28;20078;-79
2022/06/19 03:33:52;;;;;;;19.75;3.15;;;14.10;99.90;;;;;;5035711;28;20062;-79
2022/06/19 03:36:20;;;;;;;15.95;2.80;;;14.20;99.90;;;;;;5056468;28;20037;-77
2022/06/19 03:38:46;;;;;;;18.98;3.00;;;14.20;99.90;;;;;;5038661;28;20384;-78
2022/06/19 03:41:12;;;;;;;18.10;2.95;;;14.20;99.90;;;;;;5066951;28;20490;-77
2022/06/19 03:43:38;;;;;;;20.75;3.08;;;14.20;99.90;;;;;;5053235;28;20549;-78
2022/06/19 03:46:12;;;;;;;23.10;2.75;;;14.20;99.90;;;;;;5053389;28;20048;-77
2022/06/19 03:48:50;;;;;;;21.13;3.55;;;14.10;99.90;;;;;;5033380;28;20041;-79
2022/06/19 03:51:22;;;;;;;21.13;3.50;;;14.00;99.90;;;;;;5031967;28;20071;-78
2022/06/19 03:53:50;;;;;;;23.85;3.50;;;13.90;99.90;;;;;;5049699;28;20504;-80
2022/06/19 03:56:20;;;;;;;19.55;3.15;;;13.70;99.90;;;;;;5040196;28;20119;-78
2022/06/19 03:58:46;;;;;;;18.63;2.47;;;13.60;99.90;;;;;;5052829;28;20040;-80
2022/06/19 04:01:33;;;;;;;22.73;2.90;;;13.50;99.90;;;;;;5036160;28;20127;-78
2022/06/19 04:04:00;;;;;;;23.27;3.20;;;13.50;99.90;;;;;;5053260;28;20047;-79
2022/06/19 04:06:29;;;;;;;21.58;3.53;;;13.30;99.90;;;;;;5052343;28;20040;-80
2022/06/19 04:08:55;;;;;;;21.60;3.28;;;13.30;99.90;;;;;;5058153;28;20131;-77
2022/06/19 04:11:22;;;;;;;19.00;3.05;;;13.30;99.90;;;;;;5046210;28;20056;-78
2022/06/19 04:13:49;;;;;;;28.20;3.58;;;13.40;99.90;;;;;;5056186;28;20055;-79
2022/06/19 04:16:19;;;;;;;24.52;3.40;;;13.30;99.90;;;;;;5037152;28;20045;-79
2022/06/19 04:18:45;;;;;;;26.42;4.10;;;13.20;99.90;;;;;;5053355;28;20041;-80
2022/06/19 04:21:17;;;;;;;26.95;3.60;;;13.30;99.90;;;;;;5052103;28;20040;-78
2022/06/19 04:23:44;;;;;;;27.58;3.35;;;13.20;99.90;;;;;;5053269;28;20601;-80
2022/06/19 04:26:11;;;;;;;21.23;3.17;;;13.20;99.90;;;;;;5058751;28;20063;-79
2022/06/19 04:28:38;;;;;;;22.65;3.92;;;13.20;99.90;;;;;;5074193;28;20507;-81
2022/06/19 04:31:04;;;;;;;22.25;3.72;;;13.00;99.90;;;;;;5076408;28;20094;-78
2022/06/19 04:33:32;;;;;;;24.90;3.63;;;12.90;99.90;;;;;;5076090;28;20081;-79
2022/06/19 04:35:58;;;;;;;19.02;3.10;;;13.00;99.90;;;;;;5059439;28;20116;-79
2022/06/19 04:38:24;;;;;;;21.60;3.35;;;12.90;99.90;;;;;;5075140;28;20478;-78
2022/06/19 04:40:50;;;;;;;21.70;3.88;;;12.90;99.90;;;;;;5064746;28;20040;-78
2022/06/19 04:43:17;;;;;;;19.98;3.65;;;13.00;99.90;;;;;;5076869;28;20123;-80
2022/06/19 04:45:43;;;;;;;19.30;3.05;;;13.10;99.90;;;;;;5076347;28;20044;-79
2022/06/19 04:48:10;;;;;;;23.45;3.47;;;12.90;99.90;;;;;;5076989;28;20109;-80
2022/06/19 04:50:36;;;;;;;18.08;2.90;;;12.90;99.90;;;;;;5064851;28;20074;-78
2022/06/19 04:53:02;;;;;;;25.55;3.75;;;13.00;99.90;;;;;;5075244;28;20075;-79
2022/06/19 04:55:28;;;;;;;20.42;3.65;;;12.90;99.90;;;;;;5075891;28;20112;-78
2022/06/19 04:57:58;;;;;;;22.45;3.50;;;12.80;99.90;;;;;;5059203;28;20040;-79
2022/06/19 05:00:24;;;;;;;25.70;4.07;;;12.80;99.90;;;;;;5082159;28;20101;-79
2022/06/19 05:02:50;;;;;;;22.15;3.55;;;12.70;99.90;;;;;;5082196;28;20040;-78
2022/06/19 05:05:19;;;;;;;17.52;3.22;;;12.80;99.90;;;;;;5059083;28;20062;-78
2022/06/19 05:07:51;;;;;;;28.50;4.13;;;12.80;99.90;;;;;;5092242;28;20043;-79
2022/06/19 05:10:16;;;;;;;23.70;3.42;;;12.80;99.90;;;;;;5075739;28;20051;-81
2022/06/19 05:12:45;;;;;;;22.30;3.38;;;12.80;99.90;;;;;;5075449;28;20037;-79
2022/06/19 05:15:11;;;;;;;21.02;3.25;;;12.70;99.90;;;;;;5059024;28;20051;-78
2022/06/19 05:17:37;;;;;;;18.90;2.80;;;12.70;99.90;;;;;;5075325;28;20036;-78
2022/06/19 05:20:04;;;;;;;21.50;2.92;;;12.70;99.90;;;;;;5075142;28;20416;-79
2022/06/19 05:22:31;;;;;;;19.02;3.08;;;12.70;99.90;;;;;;5074956;28;20139;-79
2022/06/19 05:25:00;;;;;;;19.27;3.03;;;12.70;99.90;;;;;;5074882;28;20105;-79
2022/06/19 05:27:27;;;;;;;23.75;3.17;;;12.70;99.90;;;;;;5074949;28;20160;-78
2022/06/19 05:29:52;;;;;;;15.20;3.15;;;12.70;99.90;;;;;;5093308;28;20113;-76
2022/06/19 05:32:18;;;;;;;20.67;3.28;;;12.70;99.90;;;;;;5061829;28;20429;-77
2022/06/19 05:34:44;;;;;;;17.55;2.83;;;12.80;99.90;;;;;;5081096;28;20028;-76
2022/06/19 05:37:10;;;;;;;21.60;2.75;;;12.70;99.90;;;;;;5058821;28;20052;-79
2022/06/19 05:39:38;;;;;;;22.17;3.40;;;12.60;99.90;;;;;;5074266;28;20032;-78
2022/06/19 05:42:04;;;;;;;16.13;2.83;;;12.70;99.90;;;;;;5074910;28;20351;-78
2022/06/19 05:44:30;;;;;;;26.13;3.15;;;12.60;99.90;;;;;;5074530;28;20455;-78
2022/06/19 05:46:56;;;;;;;25.17;2.63;;;12.80;99.90;;;;;;5058400;28;20051;-80
2022/06/19 05:49:21;;;;;;;23.63;3.30;;;12.50;99.90;;;;;;5074164;28;20513;-79
2022/06/19 05:51:47;;;;;;;26.05;2.92;;;12.50;99.90;;;;;;5074331;28;20043;-77
2022/06/19 05:54:13;;;;;;;31.17;3.92;;;12.60;99.90;;;;;;5074644;28;20093;-79
2022/06/19 05:56:39;;;;;;;20.88;2.95;;;12.50;99.90;;;;;;5074635;28;20505;-78
2022/06/19 05:59:05;;;;;;;21.73;2.92;;;12.50;99.90;;;;;;5074824;28;20044;-79
2022/06/19 06:01:31;;;;;;;25.02;2.88;;;12.50;99.90;;;;;;5074428;28;20073;-78
2022/06/19 06:03:57;;;;;;;24.20;2.90;;;12.50;99.90;;;;;;5057822;28;20217;-79
2022/06/19 06:06:29;;;;;;;26.63;3.22;;;12.50;99.90;;;;;;5073682;28;20040;-78
2022/06/19 06:08:55;;;;;;;19.60;2.65;;;12.50;99.90;;;;;;5074214;28;20139;-80
2022/06/19 06:11:22;;;;;;;20.73;2.30;;;12.50;99.90;;;;;;5073939;28;20261;-79
2022/06/19 06:13:48;;;;;;;23.48;3.15;;;12.50;99.90;;;;;;5074269;28;20040;-78
2022/06/19 06:16:16;;;;;;;24.85;2.92;;;12.60;99.90;;;;;;5073869;28;20337;-77
2022/06/19 06:18:42;;;;;;;31.58;3.70;;;12.50;99.90;;;;;;5073867;28;20039;-78
2022/06/19 06:21:12;;;;;;;19.83;2.60;;;12.50;99.90;;;;;;5056493;28;20059;-79
2022/06/19 06:23:42;;;;;;;17.40;2.80;;;12.50;99.90;;;;;;5075334;28;20036;-78
2022/06/19 06:26:15;;;;;;;17.20;2.72;;;12.60;99.90;;;;;;5063103;28;20063;-78
2022/06/19 06:28:44;;;;;;;19.45;2.38;;;12.70;99.90;;;;;;5077096;28;20429;-79
2022/06/19 06:31:11;;;;;;;21.20;2.50;;;12.70;99.90;;;;;;5074237;28;20086;-78
2022/06/19 06:33:37;;;;;;;20.40;2.22;;;12.90;99.90;;;;;;5072631;28;20055;-77
2022/06/19 06:36:03;;;;;;;16.50;2.50;;;12.90;99.90;;;;;;5090729;28;20402;-79
2022/06/19 06:38:29;;;;;;;16.05;2.30;;;12.90;99.90;;;;;;5073551;28;20455;-80
2022/06/19 06:40:55;;;;;;;25.63;3.03;;;13.10;99.90;;;;;;5057598;28;20043;-78
2022/06/19 06:43:21;;;;;;;17.20;2.65;;;13.10;99.90;;;;;;5073782;28;20490;-78
2022/06/19 06:45:48;;;;;;;23.92;3.33;;;13.10;99.90;;;;;;5073878;28;20082;-78
2022/06/19 06:48:15;;;;;;;25.75;2.70;;;13.20;99.90;;;;;;5056656;28;20047;-80
2022/06/19 06:50:41;;;;;;;22.67;3.33;;;13.30;99.90;;;;;;5073266;28;20083;-79
2022/06/19 06:53:08;;;;;;;21.83;2.75;;;13.40;99.90;;;;;;5073618;28;20036;-79
2022/06/19 06:55:44;;;;;;;18.48;2.83;;;13.40;99.90;;;;;;5078313;28;20032;-76
2022/06/19 06:58:11;;;;;;;16.48;3.50;;;13.50;99.90;;;;;;5079245;28;20078;-75
2022/06/19 07:00:37;;;;;;;18.42;2.97;;;13.50;99.90;;;;;;5074254;28;20043;-78
2022/06/19 07:03:04;;;;;;;20.17;2.90;;;13.50;99.90;;;;;;5073678;28;20044;-78
2022/06/19 07:05:30;;;;;;;19.15;2.95;;;13.50;99.90;;;;;;5073241;28;20127;-78
2022/06/19 07:07:56;;;;;;;20.50;2.63;;;13.50;99.90;;;;;;5072946;28;20040;-79
2022/06/19 07:10:22;;;;;;;16.42;2.50;;;13.40;99.90;;;;;;5074235;28;20093;-79
2022/06/19 07:12:48;;;;;;;17.27;2.70;;;13.50;99.90;;;;;;5073818;28;20430;-78
2022/06/19 07:15:15;;;;;;;15.43;2.13;;;13.40;99.90;;;;;;5073233;28;20123;-80
2022/06/19 07:17:40;;;;;;;21.42;2.90;;;13.40;99.90;;;;;;5091117;28;20453;-79
2022/06/19 07:20:07;;;;;;;15.80;2.55;;;13.40;99.90;;;;;;5073126;28;20135;-78
2022/06/19 07:22:33;;;;;;;16.38;2.90;;;13.50;99.90;;;;;;5073507;28;20494;-77
2022/06/19 07:24:58;;;;;;;16.52;3.10;;;13.60;99.90;;;;;;5056538;28;20172;-79
2022/06/19 07:27:24;;;;;;;21.38;2.70;;;13.80;99.90;;;;;;5072892;28;20056;-78
2022/06/19 07:29:50;;;;;;;17.60;2.85;;;13.80;99.90;;;;;;5056331;28;20139;-80
2022/06/19 07:32:16;;;;;;;21.67;2.25;;;13.90;99.90;;;;;;5072941;28;20120;-80
2022/06/19 07:34:45;;;;;;;16.20;2.97;;;13.80;99.90;;;;;;5056470;28;20036;-77
2022/06/19 07:37:13;;;;;;;17.27;2.80;;;13.80;99.90;;;;;;5072448;28;20043;-79
2022/06/19 07:39:39;;;;;;;14.15;2.42;;;13.80;99.90;;;;;;5056138;28;20130;-80
2022/06/19 07:42:08;;;;;;;13.13;2.42;;;13.80;99.90;;;;;;5056603;28;20051;-80
2022/06/19 07:44:35;;;;;;;19.25;3.45;;;13.80;99.90;;;;;;5045813;28;20055;-78
2022/06/19 07:52:33;;;;;;;15.70;2.22;;;13.90;99.90;;;;;;5090349;28;20044;-77
2022/06/19 07:54:58;;;;;;;14.30;2.40;;;14.00;99.90;;;;;;5112226;28;20039;-77
2022/06/19 07:57:24;;;;;;;17.08;2.50;;;13.90;99.90;;;;;;5081131;28;20040;-78
2022/06/19 07:59:50;;;;;;;17.50;2.90;;;13.90;99.90;;;;;;5082918;28;20039;-79
2022/06/19 08:02:16;;;;;;;15.40;2.08;;;14.00;99.90;;;;;;5061818;28;20054;-79
2022/06/19 08:04:41;;;;;;;10.82;2.45;;;14.10;99.90;;;;;;5076609;28;20047;-79
2022/06/19 08:07:11;;;;;;;16.20;2.67;;;14.00;99.90;;;;;;5059492;28;20058;-79
2022/06/19 08:09:37;;;;;;;14.02;2.00;;;13.90;99.90;;;;;;5076260;28;20044;-79
2022/06/19 08:12:03;;;;;;;11.27;2.00;;;13.80;99.90;;;;;;5076294;28;20040;-79
2022/06/19 08:14:28;;;;;;;18.05;2.42;;;13.80;99.90;;;;;;5076862;28;20044;-78
2022/06/19 08:16:54;;;;;;;12.10;1.73;;;13.90;99.90;;;;;;5060225;28;20481;-80
2022/06/19 08:19:20;;;;;;;13.63;2.17;;;13.80;99.90;;;;;;5077843;28;20040;-78
2022/06/19 08:21:46;;;;;;;14.98;2.33;;;13.90;99.90;;;;;;5061733;28;20036;-78
2022/06/19 08:24:11;;;;;;;13.20;2.40;;;13.90;99.90;;;;;;5059945;28;20042;-79
2022/06/19 08:26:37;;;;;;;14.00;2.10;;;13.90;99.90;;;;;;5059268;28;20139;-79
2022/06/19 08:29:05;;;;;;;18.70;2.50;;;14.00;99.90;;;;;;5075963;28;20347;-79
2022/06/19 08:31:32;;;;;;;12.43;2.00;;;14.10;99.90;;;;;;5076464;28;20457;-79
2022/06/19 08:33:58;;;;;;;19.55;2.58;;;14.20;99.90;;;;;;5075544;28;20040;-79
2022/06/19 08:36:25;;;;;;;13.40;2.22;;;14.30;99.90;;;;;;5058489;28;20047;-80
2022/06/19 08:38:57;;;;;;;15.23;2.20;;;14.30;99.90;;;;;;5088300;28;20162;-79
2022/06/19 08:41:52;;;;;;;12.35;2.00;;;14.20;99.90;;;;;;5039210;28;20032;-78
2022/06/19 08:44:30;;;;;;;13.98;1.83;;;14.30;99.90;;;;;;5073920;28;20040;-80
2022/06/19 08:47:14;;;;;;;12.38;2.28;;;14.30;99.90;;;;;;5076196;28;20055;-81
2022/06/19 08:50:17;;;;;;;15.33;2.13;;;14.30;99.90;;;;;;5075087;28;20047;-78
2022/06/19 08:53:25;;;;;;;13.60;2.10;;;14.40;99.90;;;;;;5075096;28;20305;-80
2022/06/19 08:55:59;;;;;;;8.30;1.88;;;14.40;99.90;;;;;;5075878;28;20165;-79
2022/06/19 08:58:44;;;;;;;;;;;14.50;99.90;;;;;;5076457;28;20032;-79
2022/06/19 09:01:21;;;;;;;14.02;2.28;;;14.50;99.90;;;;;;5058725;28;19923;-79
2022/06/19 09:07:11;;;;;;;10.98;2.28;;;14.50;99.90;;;;;;5075442;28;20047;-78
2022/06/19 09:09:45;;;;;;;11.18;1.80;;;14.60;99.90;;;;;;5074486;28;20105;-78
2022/06/19 09:12:21;;;;;;;11.65;2.00;;;14.70;99.90;;;;;;5059499;28;20061;-80
2022/06/19 09:15:13;;;;;;;10.68;1.90;;;14.60;99.90;;;;;;5065568;28;20126;-78
2022/06/19 09:18:00;;;;;;;6.78;1.35;;;14.70;99.90;;;;;;5065480;28;20090;-80
2022/06/19 09:20:35;;;;;;;9.93;1.83;;;14.60;99.90;;;;;;5076774;28;20051;-80
2022/06/19 09:23:29;;;;;;;7.80;1.25;;;14.60;99.90;;;;;;5071598;28;20060;-80
2022/06/19 09:26:10;;;;;;;9.25;1.70;;;14.70;99.90;;;;;;5064361;28;20096;-79
2022/06/19 09:29:01;;;;;;;9.23;1.45;;;14.80;99.90;;;;;;5062374;28;20115;-78
2022/06/19 09:31:53;;;;;;;9.75;1.90;;;15.10;99.90;;;;;;5093496;28;20510;-79
2022/06/19 09:34:34;;;;;;;8.48;1.23;;;15.10;99.90;;;;;;5075105;28;20040;-79
2022/06/19 09:37:30;;;;;;;6.53;1.30;;;15.20;99.90;;;;;;5074559;28;20093;-78
2022/06/19 09:40:11;;;;;;;8.73;1.30;;;15.30;99.90;;;;;;5014778;28;20388;-78
2022/06/19 09:42:46;;;;;;;10.13;1.63;;;15.10;99.90;;;;;;5019209;28;20044;-77
2022/06/19 09:45:13;;;;;;;;;;;15.30;99.90;;;;;;5052370;28;20115;-77
2022/06/19 09:47:56;;;;;;;8.00;1.70;;;15.20;99.90;;;;;;5051057;28;19921;-78
2022/06/19 09:50:30;;;;;;;8.43;2.00;;;15.10;99.90;;;;;;5033350;28;20055;-80
2022/06/19 09:53:15;;;;;;;6.25;1.60;;;15.20;99.90;;;;;;5050276;28;20051;-79
2022/06/19 09:55:46;;;;;;;7.88;1.77;;;15.50;99.90;;;;;;5050608;28;20124;-79
2022/06/19 09:58:27;;;;;;;7.28;1.40;;;15.70;99.90;;;;;;5033475;28;20048;-79
2022/06/19 10:00:56;;;;;;;6.00;1.17;;;15.50;99.90;;;;;;5033783;28;20389;-81
2022/06/19 10:03:45;;;;;;;8.05;1.50;;;15.50;99.90;;;;;;5033916;28;20161;-80
2022/06/19 10:06:20;;;;;;;10.50;1.73;;;15.50;99.90;;;;;;5032507;28;20041;-80
2022/06/19 10:09:08;;;;;;;6.45;1.30;;;15.50;99.90;;;;;;5017266;28;20411;-78
2022/06/19 10:11:41;;;;;;;8.57;1.40;;;15.50;99.90;;;;;;5003754;28;20251;-80
2022/06/19 10:14:25;;;;;;;5.75;1.33;;;15.60;99.90;;;;;;5019240;28;20666;-79
2022/06/19 10:17:20;;;;;;;5.72;1.50;;;15.90;99.90;;;;;;5073393;28;20089;-79
2022/06/19 10:19:53;;;;;;;8.02;1.40;;;16.00;99.90;;;;;;5050586;28;20048;-79
2022/06/19 10:22:34;;;;;;;7.30;1.38;;;16.10;99.90;;;;;;5051551;28;20040;-79
2022/06/19 10:25:11;;;;;;;8.63;1.48;;;16.20;99.90;;;;;;5057102;28;20042;-80
2022/06/19 10:27:46;;;;;;;5.10;1.35;;;16.10;99.90;;;;;;5094450;28;20112;-79
2022/06/19 10:30:27;;;;;;;9.27;1.55;;;16.10;99.90;;;;;;5094900;28;20048;-80
2022/06/19 10:33:37;;;;;;;5.63;1.23;;;16.00;99.90;;;;;;5094817;28;20092;-80
2022/06/19 10:36:15;;;;;;;6.15;1.70;;;16.10;99.90;;;;;;5094479;28;20091;-80
2022/06/19 10:39:09;;;;;;;7.63;1.30;;;16.50;99.90;;;;;;5080098;28;20046;-79
2022/06/19 10:42:06;;;;;;;4.10;1.00;;;16.50;99.90;;;;;;5104157;28;20043;-79
2022/06/19 10:44:59;;;;;;;4.47;1.05;;;17.00;99.90;;;;;;5060324;28;20040;-80
2022/06/19 10:47:37;;;;;;;5.47;1.10;;;17.10;99.90;;;;;;5074261;28;20044;-80
2022/06/19 10:50:36;;;;;;;6.07;1.05;;;17.10;99.90;;;;;;5073922;28;20071;-79
2022/06/19 10:53:19;;;;;;;4.78;0.90;;;17.30;99.90;;;;;;5057170;28;20131;-80
2022/06/19 10:56:08;;;;;;;3.63;0.93;;;17.50;99.90;;;;;;5074090;28;20051;-80
2022/06/19 10:58:35;;;;;;;2.53;0.70;;;17.70;99.90;;;;;;5091995;28;20078;-80
2022/06/19 11:01:05;;;;;;;2.33;0.80;;;17.30;99.90;;;;;;5056980;28;20036;-79
2022/06/19 11:06:56;;;;;;;2.03;0.77;;;17.20;99.90;;;;;;5073312;28;20059;-79
2022/06/19 11:09:59;;;;;;;1.85;0.60;;;16.80;99.90;;;;;;5073512;28;20044;-78
2022/06/19 11:12:40;;;;;;;2.28;0.85;;;16.70;99.90;;;;;;5075540;28;20121;-78
2022/06/19 11:15:26;;;;;;;3.45;0.80;;;16.70;99.90;;;;;;5073471;28;20044;-79
2022/06/19 11:18:13;;;;;;;3.83;1.35;;;16.80;99.90;;;;;;5072875;28;20044;-79
2022/06/19 11:21:01;;;;;;;8.32;1.40;;;16.70;99.90;;;;;;5075989;28;20430;-79
2022/06/19 11:23:40;;;;;;;5.60;1.35;;;16.50;99.90;;;;;;5090439;28;20036;-79
2022/06/19 11:26:13;;;;;;;4.85;1.38;;;16.30;99.90;;;;;;5083208;28;20041;-79
2022/06/19 11:28:49;;;;;;;4.57;1.20;;;16.00;99.90;;;;;;5072514;28;20041;-80
2022/06/19 11:31:26;;;;;;;4.72;1.35;;;15.90;99.90;;;;;;5071445;28;20041;-78
2022/06/19 11:33:56;;;;;;;7.00;1.48;;;15.70;99.90;;;;;;5068708;28;20088;-79
2022/06/19 11:36:27;;;;;;;4.63;1.33;;;15.70;99.90;;;;;;5043202;28;20104;-79
2022/06/19 11:38:54;;;;;;;7.93;1.70;;;15.60;99.90;;;;;;5037333;28;20037;-79
2022/06/19 11:41:33;;;;;;;7.10;1.63;;;15.60;99.90;;;;;;5053734;28;20373;-80
2022/06/19 11:44:13;;;;;;;6.80;1.42;;;15.50;99.90;;;;;;5056900;28;20092;-79
2022/06/19 11:46:55;;;;;;;6.63;1.90;;;15.50;99.90;;;;;;5056850;28;20079;-79
2022/06/19 11:49:25;;;;;;;6.90;1.80;;;15.30;99.90;;;;;;5055720;28;20045;-80
2022/06/19 11:51:52;;;;;;;6.20;1.40;;;15.40;99.90;;;;;;5056426;28;20052;-78
2022/06/19 11:54:24;;;;;;;7.20;1.52;;;15.30;99.90;;;;;;5057262;28;20067;-79
2022/06/19 11:56:52;;;;;;;10.55;2.13;;;15.20;99.90;;;;;;5037091;28;20055;-80
2022/06/19 11:59:25;;;;;;;7.20;1.55;;;15.20;99.90;;;;;;5053288;28;20040;-80
2022/06/19 12:01:51;;;;;;;5.95;1.42;;;15.20;99.90;;;;;;5053729;28;20038;-78
2022/06/19 12:04:38;;;;;;;8.02;1.50;;;15.20;99.90;;;;;;5057422;28;20048;-79
2022/06/19 12:07:13;;;;;;;6.40;1.42;;;15.20;99.90;;;;;;5064330;28;20052;-79
2022/06/19 12:09:43;;;;;;;5.40;1.33;;;15.20;99.90;;;;;;5058139;28;20057;-80
2022/06/19 12:12:17;;;;;;;9.68;1.80;;;15.20;99.90;;;;;;5057501;28;20388;-80
2022/06/19 12:14:46;;;;;;;8.57;1.77;;;15.10;99.90;;;;;;5073657;28;20383;-79
2022/06/19 12:17:30;;;;;;;6.53;1.65;;;15.10;99.90;;;;;;5073004;28;20076;-80
2022/06/19 12:19:59;;;;;;;5.28;1.38;;;15.20;99.90;;;;;;5072569;28;20090;-79
2022/06/19 12:22:48;;;;;;;9.90;1.80;;;15.20;99.90;;;;;;5056571;28;20041;-80
2022/06/19 12:25:43;;;;;;;5.47;1.38;;;15.30;99.90;;;;;;5072976;28;20226;-81
2022/06/19 12:28:24;;;;;;;7.18;1.48;;;15.60;99.90;;;;;;5072759;28;20509;-80
2022/06/19 12:31:13;;;;;;;6.13;1.58;;;16.10;99.90;;;;;;5056662;28;20043;-78
2022/06/19 12:33:59;;;;;;;9.77;1.70;;;16.50;99.90;;;;;;5072870;28;20070;-78
2022/06/19 12:36:32;;;;;;;5.63;1.50;;;16.90;99.90;;;;;;5072705;28;20075;-80
2022/06/19 12:38:57;;;;;;;6.97;1.73;;;17.10;99.90;;;;;;5068796;28;20032;-79
2022/06/19 12:42:08;;;;;;;9.68;1.88;;;17.00;99.90;;;;;;5055663;28;20139;-80
2022/06/19 12:45:02;;;;;;;6.22;1.50;;;17.00;99.90;;;;;;4972153;28;20050;-79
2022/06/19 12:47:58;;;;;;;5.90;1.40;;;16.90;99.90;;;;;;4973259;28;20450;-80
2022/06/19 12:51:05;;;;;;;6.95;1.50;;;17.20;99.90;;;;;;4956645;28;20058;-78
2022/06/19 12:53:45;;;;;;;7.07;1.20;;;17.60;99.90;;;;;;4949873;28;20569;-79
2022/06/19 12:56:18;;;;;;;6.93;1.45;;;17.80;99.90;;;;;;4974485;28;20141;-81
2022/06/19 12:59:02;;;;;;;5.78;1.35;;;18.20;99.90;;;;;;4977703;28;20054;-80
2022/06/19 13:01:58;;;;;;;7.13;1.50;;;18.60;99.90;;;;;;4974730;28;20050;-79
2022/06/19 13:04:32;;;;;;;6.45;1.50;;;18.60;99.90;;;;;;4918406;29;20048;-81
2022/06/19 13:07:28;;;;;;;6.85;1.45;;;18.50;99.90;;;;;;4910503;29;20052;-81
2022/06/19 13:10:00;;;;;;;11.10;1.75;;;18.30;99.90;;;;;;4933825;29;20054;-80
2022/06/19 13:12:50;;;;;;;7.85;1.60;;;18.40;99.90;;;;;;4918536;29;20122;-79
2022/06/19 13:15:24;;;;;;;7.07;1.67;;;18.60;99.90;;;;;;4930894;29;20068;-80
2022/06/19 13:18:21;;;;;;;6.40;1.60;;;18.10;99.90;;;;;;4918306;29;20106;-81
2022/06/19 13:20:53;;;;;;;10.80;2.03;;;18.20;99.90;;;;;;4875420;29;20058;-81
2022/06/19 13:23:24;;;;;;;6.40;1.60;;;18.40;99.90;;;;;;4933958;29;20471;-79